createdAt,value
2023-03-26T00:01:36.861Z,7.20
2023-03-26T00:04:06.758Z,7.20
2023-03-26T00:06:39.997Z,7.20
2023-03-26T00:09:10.698Z,7.20
2023-03-26T00:11:38.622Z,7.20
2023-03-26T00:14:06.522Z,7.20
2023-03-26T00:16:34.423Z,7.20
2023-03-26T00:19:02.710Z,7.20
2023-03-26T00:21:30.747Z,7.20
2023-03-26T00:24:04.430Z,7.22
2023-03-26T00:26:34.073Z,7.30
2023-03-26T00:29:03.702Z,7.30
2023-03-26T00:31:31.845Z,7.30
2023-03-26T00:34:03.322Z,7.28
2023-03-26T00:36:31.250Z,7.30
2023-03-26T00:38:59.111Z,7.30
2023-03-26T00:41:31.082Z,7.30
2023-03-26T00:43:59.939Z,7.30
2023-03-26T00:46:30.760Z,7.28
2023-03-26T00:49:00.088Z,7.30
2023-03-26T00:51:28.354Z,7.22
2023-03-26T00:53:56.950Z,7.30
2023-03-26T00:56:25.114Z,7.28
2023-03-26T00:58:52.934Z,7.26
2023-03-26T01:01:30.573Z,7.20
2023-03-26T01:04:19.491Z,7.28
2023-03-26T01:06:47.437Z,7.28
2023-03-26T01:09:18.972Z,7.22
2023-03-26T01:11:48.547Z,7.30
2023-03-26T01:14:23.818Z,7.22
2023-03-26T01:16:55.349Z,7.26
2023-03-26T01:19:45.225Z,7.28
2023-03-26T01:22:20.993Z,7.28
2023-03-26T01:24:54.192Z,7.28
2023-03-26T01:27:25.711Z,7.30
2023-03-26T01:29:56.472Z,7.30
2023-03-26T01:32:33.605Z,7.24
2023-03-26T01:35:20.673Z,7.20
2023-03-26T01:38:39.458Z,7.20
2023-03-26T01:41:14.170Z,7.20
2023-03-26T01:44:16.709Z,7.20
2023-03-26T01:46:44.759Z,7.20
2023-03-26T01:49:15.638Z,7.20
2023-03-26T01:51:43.591Z,7.20
2023-03-26T01:54:16.963Z,7.20
2023-03-26T01:57:11.560Z,7.20
2023-03-26T01:59:57.618Z,7.20
2023-03-26T02:02:55.040Z,7.20
2023-03-26T02:05:36.151Z,7.28
2023-03-26T02:08:35.559Z,7.30
2023-03-26T02:11:11.755Z,7.30
2023-03-26T02:13:42.570Z,7.30
2023-03-26T02:16:18.717Z,7.30
2023-03-26T02:18:51.529Z,7.30
2023-03-26T02:21:21.900Z,7.30
2023-03-26T02:23:57.868Z,7.40
2023-03-26T02:26:26.033Z,7.38
2023-03-26T02:28:58.606Z,7.38
2023-03-26T02:31:26.838Z,7.40
2023-03-26T02:33:55.692Z,7.30
2023-03-26T02:36:27.601Z,7.30
2023-03-26T02:38:58.138Z,7.30
2023-03-26T02:41:26.384Z,7.30
2023-03-26T02:44:05.869Z,7.38
2023-03-26T02:46:52.587Z,7.36
2023-03-26T02:49:40.699Z,7.34
2023-03-26T02:52:09.157Z,7.38
2023-03-26T02:54:37.214Z,7.40
2023-03-26T02:57:34.220Z,7.40
2023-03-26T03:00:10.076Z,7.40
2023-03-26T03:02:38.870Z,7.40
2023-03-26T03:05:26.767Z,7.40
2023-03-26T03:08:13.493Z,7.40
2023-03-26T03:10:57.162Z,7.42
2023-03-26T03:13:36.467Z,7.48
2023-03-26T03:16:05.848Z,7.48
2023-03-26T03:18:33.767Z,7.50
2023-03-26T03:21:03.429Z,7.50
2023-03-26T03:23:31.601Z,7.50
2023-03-26T03:26:14.389Z,7.50
2023-03-26T03:28:45.145Z,7.50
2023-03-26T03:31:16.777Z,7.50
2023-03-26T03:33:46.553Z,7.50
2023-03-26T03:36:22.292Z,7.50
2023-03-26T03:39:02.730Z,7.50
2023-03-26T03:41:32.745Z,7.50
2023-03-26T03:44:02.479Z,7.50
2023-03-26T03:46:32.852Z,7.50
2023-03-26T03:49:01.256Z,7.46
2023-03-26T03:51:36.043Z,7.40
2023-03-26T03:54:28.343Z,7.48
2023-03-26T03:57:26.164Z,7.42
2023-03-26T04:00:00.438Z,7.50
2023-03-26T04:02:35.075Z,7.50
2023-03-26T04:05:06.167Z,7.50
2023-03-26T04:07:34.253Z,7.50
2023-03-26T04:10:09.433Z,7.50
2023-03-26T04:12:56.296Z,7.50
2023-03-26T04:15:38.634Z,7.50
2023-03-26T04:18:10.500Z,7.50
2023-03-26T04:20:46.840Z,7.50
2023-03-26T04:23:21.489Z,7.50
2023-03-26T04:25:54.000Z,7.50
2023-03-26T04:28:35.751Z,7.50
2023-03-26T04:31:24.685Z,7.50
2023-03-26T04:33:56.515Z,7.50
2023-03-26T04:36:28.752Z,7.50
2023-03-26T04:38:58.562Z,7.50
2023-03-26T04:41:44.064Z,7.50
2023-03-26T04:44:22.512Z,7.50
2023-03-26T04:47:03.686Z,7.50
2023-03-26T04:49:36.368Z,7.50
2023-03-26T04:52:04.573Z,7.50
2023-03-26T04:55:17.071Z,7.50
2023-03-26T04:57:57.850Z,7.60
2023-03-26T05:01:10.556Z,7.60
2023-03-26T05:03:41.518Z,7.58
2023-03-26T05:06:11.888Z,7.52
2023-03-26T05:08:39.743Z,7.50
2023-03-26T05:11:11.718Z,7.58
2023-03-26T05:13:42.975Z,7.50
2023-03-26T05:16:13.061Z,7.52
2023-03-26T05:18:46.874Z,7.60
2023-03-26T05:21:15.801Z,7.60
2023-03-26T05:23:43.950Z,7.60
2023-03-26T05:26:19.006Z,7.60
2023-03-26T05:28:46.931Z,7.60
2023-03-26T05:31:48.732Z,7.60
2023-03-26T05:34:16.907Z,7.58
2023-03-26T05:36:44.956Z,7.60
2023-03-26T05:39:41.434Z,7.60
2023-03-26T05:42:27.989Z,7.70
2023-03-26T05:45:11.205Z,7.80
2023-03-26T05:47:39.218Z,7.90
2023-03-26T05:50:08.280Z,7.98
2023-03-26T05:52:37.986Z,8.08
2023-03-26T05:55:24.539Z,8.10
2023-03-26T05:58:11.420Z,8.10
2023-03-26T06:01:08.737Z,8.10
2023-03-26T06:03:56.829Z,8.10
2023-03-26T06:06:28.576Z,8.18
2023-03-26T06:09:01.832Z,8.26
2023-03-26T06:11:32.095Z,8.40
2023-03-26T06:14:01.191Z,8.52
2023-03-26T06:16:35.464Z,8.70
2023-03-26T06:19:18.426Z,8.70
2023-03-26T06:21:49.400Z,8.80
2023-03-26T06:24:21.985Z,8.80
2023-03-26T06:27:08.635Z,8.90
2023-03-26T06:30:15.306Z,9.00
2023-03-26T06:32:53.597Z,9.00
2023-03-26T06:35:26.024Z,9.10
2023-03-26T06:37:54.310Z,9.10
2023-03-26T06:40:22.496Z,9.16
2023-03-26T06:43:13.690Z,9.20
2023-03-26T06:45:55.380Z,9.24
2023-03-26T06:48:46.672Z,9.30
2023-03-26T06:51:33.291Z,9.44
2023-03-26T06:54:20.532Z,9.70
2023-03-26T06:56:57.459Z,9.80
2023-03-26T06:59:44.100Z,9.80
2023-03-26T07:02:30.717Z,9.90
2023-03-26T07:05:17.468Z,9.90
2023-03-26T07:08:04.948Z,9.90
2023-03-26T07:10:56.209Z,9.90
2023-03-26T07:13:46.166Z,10.00
2023-03-26T07:16:47.028Z,10.00
2023-03-26T07:19:26.229Z,10.10
2023-03-26T07:21:54.701Z,10.12
2023-03-26T07:24:44.125Z,10.10
2023-03-26T07:27:44.722Z,10.00
2023-03-26T07:30:28.901Z,10.00
2023-03-26T07:33:31.928Z,9.90
2023-03-26T07:36:45.457Z,9.90
2023-03-26T07:39:42.372Z,9.90
2023-03-26T07:42:43.571Z,10.10
2023-03-26T07:45:44.408Z,10.20
2023-03-26T07:48:20.240Z,10.48
2023-03-26T07:51:07.675Z,10.50
2023-03-26T07:54:05.901Z,10.40
2023-03-26T07:56:58.033Z,10.30
2023-03-26T08:00:12.389Z,10.20
2023-03-26T08:03:04.900Z,10.30
2023-03-26T08:05:58.349Z,10.16
2023-03-26T08:09:38.816Z,9.98
2023-03-26T08:13:22.364Z,9.16
2023-03-26T08:16:08.249Z,8.66
2023-03-26T08:19:00.589Z,8.40
2023-03-26T08:21:39.723Z,8.40
2023-03-26T08:24:22.958Z,8.40
2023-03-26T08:27:10.102Z,8.50
2023-03-26T08:29:50.004Z,8.60
2023-03-26T08:32:19.334Z,8.80
2023-03-26T08:34:47.293Z,8.94
2023-03-26T08:37:15.612Z,9.20
2023-03-26T08:39:43.751Z,9.50
2023-03-26T08:42:39.565Z,9.70
2023-03-26T08:45:51.463Z,9.80
2023-03-26T08:48:22.496Z,10.00
2023-03-26T08:51:17.449Z,10.02
2023-03-26T08:54:10.139Z,10.10
2023-03-26T08:57:12.428Z,10.20
2023-03-26T08:59:59.714Z,10.20
2023-03-26T09:02:57.533Z,10.22
2023-03-26T09:06:10.133Z,10.30
2023-03-26T09:09:09.300Z,10.40
2023-03-26T09:12:18.326Z,10.50
2023-03-26T09:15:17.760Z,10.70
2023-03-26T09:18:10.127Z,10.80
2023-03-26T09:21:11.956Z,10.88
2023-03-26T09:24:27.818Z,11.00
2023-03-26T09:27:39.565Z,10.88
2023-03-26T09:30:26.790Z,10.66
2023-03-26T09:33:43.266Z,10.40
2023-03-26T09:36:33.549Z,9.90
2023-03-26T09:39:23.707Z,9.64
2023-03-26T09:42:15.642Z,9.38
2023-03-26T09:44:58.707Z,9.10
2023-03-26T09:48:28.069Z,8.92
2023-03-26T09:51:21.764Z,8.50
2023-03-26T09:54:18.232Z,8.40
2023-03-26T09:57:11.540Z,8.40
2023-03-26T10:00:13.596Z,8.40
2023-03-26T10:03:08.897Z,8.40
2023-03-26T10:05:55.470Z,8.42
2023-03-26T10:08:25.072Z,8.70
2023-03-26T10:11:22.957Z,9.00
2023-03-26T10:14:26.144Z,9.20
2023-03-26T10:17:35.810Z,9.36
2023-03-26T10:20:19.765Z,9.50
2023-03-26T10:23:14.087Z,9.30
2023-03-26T10:26:18.951Z,9.30
2023-03-26T10:29:08.306Z,9.68
2023-03-26T10:31:43.391Z,10.02
2023-03-26T10:34:28.118Z,10.40
2023-03-26T10:37:16.306Z,10.70
2023-03-26T10:40:02.066Z,10.80
2023-03-26T10:43:26.381Z,10.96
2023-03-26T10:46:31.926Z,11.08
2023-03-26T10:49:50.042Z,10.90
2023-03-26T10:52:23.605Z,10.66
2023-03-26T10:55:13.504Z,10.54
2023-03-26T10:57:58.259Z,10.30
2023-03-26T11:00:29.003Z,10.08
2023-03-26T11:03:24.475Z,9.74
2023-03-26T11:06:11.715Z,9.30
2023-03-26T11:08:49.813Z,8.98
2023-03-26T11:11:31.840Z,8.70
2023-03-26T11:14:02.423Z,8.70
2023-03-26T11:17:39.791Z,8.72
2023-03-26T11:20:31.278Z,8.80
2023-03-26T11:23:36.635Z,8.90
2023-03-26T11:26:14.236Z,9.08
2023-03-26T11:29:03.425Z,9.20
2023-03-26T11:32:11.793Z,9.40
2023-03-26T11:34:50.960Z,9.50
2023-03-26T11:37:27.516Z,9.58
2023-03-26T11:39:56.944Z,9.70
2023-03-26T11:42:25.573Z,9.90
2023-03-26T11:44:59.879Z,10.00
2023-03-26T11:47:59.732Z,9.96
2023-03-26T11:50:29.685Z,10.10
2023-03-26T11:52:59.349Z,10.20
2023-03-26T11:55:27.702Z,10.40
2023-03-26T11:57:57.463Z,10.60
2023-03-26T12:00:27.764Z,10.70
2023-03-26T12:02:58.159Z,10.90
2023-03-26T12:05:31.642Z,11.00
2023-03-26T12:08:04.425Z,11.12
2023-03-26T12:10:38.076Z,11.40
2023-03-26T12:13:30.484Z,11.66
2023-03-26T12:16:08.935Z,12.10
2023-03-26T12:18:37.237Z,12.22
2023-03-26T12:21:18.036Z,12.30
2023-03-26T12:24:04.650Z,12.28
2023-03-26T12:26:42.810Z,12.10
2023-03-26T12:29:13.548Z,12.18
2023-03-26T12:31:53.292Z,12.30
2023-03-26T12:34:43.037Z,12.40
2023-03-26T12:37:37.548Z,12.50
2023-03-26T12:40:35.908Z,12.72
2023-03-26T12:44:56.033Z,12.92
2023-03-26T12:47:45.834Z,13.10
2023-03-26T12:48:48.038Z,13.02
2023-03-26T12:51:38.228Z,12.82
2023-03-26T12:54:17.458Z,12.58
2023-03-26T12:57:11.737Z,12.40
2023-03-26T12:59:56.612Z,12.18
2023-03-26T13:03:01.626Z,12.14
2023-03-26T13:05:57.714Z,11.88
2023-03-26T13:09:05.084Z,11.70
2023-03-26T13:11:51.403Z,11.70
2023-03-26T13:14:34.794Z,11.70
2023-03-26T13:17:11.659Z,11.70
2023-03-26T13:19:48.151Z,11.78
2023-03-26T13:22:51.580Z,11.80
2023-03-26T13:25:34.882Z,11.80
2023-03-26T13:28:30.941Z,11.80
2023-03-26T13:31:23.858Z,11.80
2023-03-26T13:34:19.296Z,11.80
2023-03-26T13:37:00.605Z,12.10
2023-03-26T13:39:50.156Z,12.20
2023-03-26T13:42:42.930Z,12.30
2023-03-26T13:45:24.770Z,12.10
2023-03-26T13:47:55.509Z,11.90
2023-03-26T13:50:34.068Z,11.82
2023-03-26T13:53:24.886Z,11.70
2023-03-26T13:55:59.287Z,11.60
2023-03-26T13:58:42.541Z,11.44
2023-03-26T14:01:17.304Z,11.10
2023-03-26T14:04:08.309Z,10.80
2023-03-26T14:06:54.173Z,10.46
2023-03-26T14:09:30.671Z,10.10
2023-03-26T14:12:35.318Z,9.80
2023-03-26T14:15:10.885Z,9.50
2023-03-26T14:17:48.783Z,9.40
2023-03-26T14:20:22.441Z,9.30
2023-03-26T14:23:25.742Z,9.20
2023-03-26T14:26:14.804Z,9.22
2023-03-26T14:29:04.590Z,9.40
2023-03-26T14:31:49.714Z,9.60
2023-03-26T14:34:42.832Z,9.90
2023-03-26T14:37:53.793Z,10.00
2023-03-26T14:40:33.855Z,9.90
2023-03-26T14:43:18.526Z,9.90
2023-03-26T14:46:27.585Z,9.90
2023-03-26T14:49:26.633Z,10.00
2023-03-26T14:52:27.586Z,10.20
2023-03-26T14:54:58.025Z,10.20
2023-03-26T14:58:16.025Z,10.36
2023-03-26T15:01:13.338Z,10.44
2023-03-26T15:04:25.115Z,10.50
2023-03-26T15:07:27.722Z,10.58
2023-03-26T15:10:25.618Z,10.60
2023-03-26T15:13:36.721Z,10.60
2023-03-26T15:16:28.123Z,10.70
2023-03-26T15:19:40.972Z,10.70
2023-03-26T15:22:28.026Z,10.70
2023-03-26T15:25:43.711Z,10.70
2023-03-26T15:28:46.566Z,10.62
2023-03-26T15:31:40.950Z,10.70
2023-03-26T15:34:39.967Z,10.60
2023-03-26T15:37:50.358Z,10.54
2023-03-26T15:40:36.723Z,10.50
2023-03-26T15:43:20.200Z,10.42
2023-03-26T15:45:53.934Z,10.38
2023-03-26T15:48:36.678Z,10.30
2023-03-26T15:51:46.888Z,10.30
2023-03-26T15:54:22.871Z,10.20
2023-03-26T15:57:44.324Z,10.20
2023-03-26T16:00:19.241Z,10.10
2023-03-26T16:03:11.834Z,10.10
2023-03-26T16:06:31.147Z,10.10
2023-03-26T16:09:45.733Z,10.08
2023-03-26T16:12:16.761Z,10.00
2023-03-26T16:15:05.803Z,10.00
2023-03-26T16:18:25.575Z,9.98
2023-03-26T16:21:38.931Z,9.90
2023-03-26T16:24:07.440Z,9.80
2023-03-26T16:26:44.281Z,9.76
2023-03-26T16:29:26.817Z,9.70
2023-03-26T16:32:18.989Z,9.70
2023-03-26T16:35:02.116Z,9.70
2023-03-26T16:37:39.910Z,9.60
2023-03-26T16:40:17.199Z,9.50
2023-03-26T16:42:51.798Z,9.48
2023-03-26T16:45:57.389Z,9.40
2023-03-26T16:49:10.680Z,9.40
2023-03-26T16:52:20.593Z,9.40
2023-03-26T16:55:11.555Z,9.30
2023-03-26T16:57:53.147Z,9.30
2023-03-26T17:00:49.649Z,9.20
2023-03-26T17:03:38.857Z,9.20
2023-03-26T17:06:20.981Z,9.18
2023-03-26T17:09:23.614Z,9.10
2023-03-26T17:12:56.296Z,9.10
2023-03-26T17:15:53.540Z,9.00
2023-03-26T17:18:43.630Z,8.96
2023-03-26T17:21:46.744Z,8.90
2023-03-26T17:24:40.736Z,8.80
2023-03-26T17:27:58.760Z,8.80
2023-03-26T17:30:54.851Z,8.78
2023-03-26T17:33:31.272Z,8.70
2023-03-26T17:36:41.222Z,8.70
2023-03-26T17:39:21.583Z,8.66
2023-03-26T17:41:54.440Z,8.60
2023-03-26T17:44:44.168Z,8.50
2023-03-26T17:47:22.668Z,8.50
2023-03-26T17:49:55.510Z,8.40
2023-03-26T17:52:51.939Z,8.40
2023-03-26T17:55:22.216Z,8.32
2023-03-26T17:57:53.688Z,8.30
2023-03-26T18:00:25.309Z,8.20
2023-03-26T18:02:57.313Z,8.20
2023-03-26T18:05:29.160Z,8.20
2023-03-26T18:08:37.219Z,8.20
2023-03-26T18:11:38.168Z,8.10
2023-03-26T18:14:47.652Z,8.00
2023-03-26T18:17:15.445Z,7.98
2023-03-26T18:19:52.483Z,7.90
2023-03-26T18:22:24.778Z,7.90
2023-03-26T18:24:56.100Z,7.90
2023-03-26T18:27:24.033Z,7.90
2023-03-26T18:30:01.656Z,7.90
2023-03-26T18:32:33.669Z,7.80
2023-03-26T18:35:18.783Z,7.70
2023-03-26T18:37:49.247Z,7.56
2023-03-26T18:40:21.501Z,7.50
2023-03-26T18:42:55.342Z,7.44
2023-03-26T18:45:23.404Z,7.40
2023-03-26T18:47:57.316Z,7.40
2023-03-26T18:50:37.232Z,7.34
2023-03-26T18:53:21.061Z,7.30
2023-03-26T18:55:50.652Z,7.30
2023-03-26T18:58:34.440Z,7.30
2023-03-26T19:01:04.969Z,7.30
2023-03-26T19:03:35.628Z,7.30
2023-03-26T19:06:04.759Z,7.40
2023-03-26T19:08:35.461Z,7.40
2023-03-26T19:11:04.942Z,7.40
2023-03-26T19:13:33.735Z,7.40
2023-03-26T19:16:06.129Z,7.40
2023-03-26T19:18:36.279Z,7.40
2023-03-26T19:21:04.648Z,7.30
2023-03-26T19:23:36.297Z,7.20
2023-03-26T19:26:06.734Z,7.10
2023-03-26T19:28:49.310Z,7.00
2023-03-26T19:31:22.529Z,6.90
2023-03-26T19:33:59.701Z,6.84
2023-03-26T19:36:31.755Z,6.80
2023-03-26T19:38:59.646Z,6.80
2023-03-26T19:41:36.636Z,6.80
2023-03-26T19:44:28.651Z,6.80
2023-03-26T19:47:31.843Z,6.70
2023-03-26T19:50:23.431Z,6.60
2023-03-26T19:53:17.722Z,6.58
2023-03-26T19:55:56.568Z,6.50
2023-03-26T19:58:27.482Z,6.40
2023-03-26T20:00:58.860Z,6.40
2023-03-26T20:03:30.595Z,6.40
2023-03-26T20:05:59.644Z,6.40
2023-03-26T20:08:27.984Z,6.50
2023-03-26T20:10:56.682Z,6.50
2023-03-26T20:13:24.691Z,6.50
2023-03-26T20:16:06.027Z,6.52
2023-03-26T20:18:35.143Z,6.60
2023-03-26T20:21:10.863Z,6.60
2023-03-26T20:23:40.366Z,6.64
2023-03-26T20:26:15.889Z,6.70
2023-03-26T20:28:48.374Z,6.70
2023-03-26T20:31:25.363Z,6.80
2023-03-26T20:33:53.892Z,6.80
2023-03-26T20:36:33.648Z,6.88
2023-03-26T20:39:07.821Z,6.90
2023-03-26T20:41:38.224Z,6.90
2023-03-26T20:44:13.721Z,6.94
2023-03-26T20:46:43.423Z,6.98
2023-03-26T20:49:11.952Z,6.90
2023-03-26T20:51:41.992Z,6.90
2023-03-26T20:54:24.344Z,6.90
2023-03-26T20:56:53.517Z,6.90
2023-03-26T20:59:28.840Z,6.80
2023-03-26T21:01:57.812Z,6.80
2023-03-26T21:04:26.741Z,6.80
2023-03-26T21:07:00.239Z,6.82
2023-03-26T21:09:35.778Z,6.80
2023-03-26T21:12:28.137Z,6.70
2023-03-26T21:14:57.272Z,6.70
2023-03-26T21:17:26.334Z,6.60
2023-03-26T21:19:55.027Z,6.60
2023-03-26T21:22:49.532Z,6.50
2023-03-26T21:25:53.286Z,6.58
2023-03-26T21:28:42.505Z,6.60
2023-03-26T21:31:20.484Z,6.60
2023-03-26T21:33:49.565Z,6.58
2023-03-26T21:36:19.907Z,6.60
2023-03-26T21:38:50.613Z,6.60
2023-03-26T21:41:24.455Z,6.60
2023-03-26T21:43:52.328Z,6.60
2023-03-26T21:46:20.796Z,6.68
2023-03-26T21:48:49.133Z,6.70
2023-03-26T21:51:17.821Z,6.70
2023-03-26T21:53:46.600Z,6.70
2023-03-26T21:56:39.584Z,6.70
2023-03-26T21:59:36.758Z,6.60
2023-03-26T22:02:24.211Z,6.60
2023-03-26T22:04:57.260Z,6.58
2023-03-26T22:07:53.405Z,6.50
2023-03-26T22:10:21.620Z,6.50
2023-03-26T22:12:49.613Z,6.50
2023-03-26T22:15:18.579Z,6.50
2023-03-26T22:17:54.154Z,6.42
2023-03-26T22:20:25.212Z,6.40
2023-03-26T22:22:55.358Z,6.40
2023-03-26T22:25:23.730Z,6.40
2023-03-26T22:27:51.747Z,6.40
2023-03-26T22:30:23.028Z,6.40
2023-03-26T22:32:51.929Z,6.44
2023-03-26T22:35:19.893Z,6.40
2023-03-26T22:37:48.498Z,6.40
2023-03-26T22:40:18.006Z,6.40
2023-03-26T22:42:46.170Z,6.40
2023-03-26T22:45:14.121Z,6.40
2023-03-26T22:47:42.210Z,6.40
2023-03-26T22:50:10.875Z,6.40
2023-03-26T22:52:40.794Z,6.40
2023-03-26T22:55:11.049Z,6.40
2023-03-26T22:57:39.431Z,6.40
2023-03-26T23:00:19.726Z,6.40
2023-03-26T23:02:47.616Z,6.40
2023-03-26T23:05:18.778Z,6.40
2023-03-26T23:07:46.653Z,6.40
2023-03-26T23:10:14.541Z,6.40
2023-03-26T23:12:42.537Z,6.40
2023-03-26T23:15:11.288Z,6.40
2023-03-26T23:17:39.538Z,6.40
2023-03-26T23:20:15.379Z,6.44
2023-03-26T23:22:43.984Z,6.50
2023-03-26T23:25:11.914Z,6.46
2023-03-26T23:27:41.597Z,6.46
2023-03-26T23:30:11.046Z,6.50
2023-03-26T23:32:39.044Z,6.50
2023-03-26T23:35:07.534Z,6.50
2023-03-26T23:37:35.577Z,6.52
2023-03-26T23:40:10.263Z,6.50
2023-03-26T23:42:38.401Z,6.50
2023-03-26T23:45:08.513Z,6.50
2023-03-26T23:47:37.359Z,6.50
2023-03-26T23:50:06.382Z,6.40
2023-03-26T23:52:34.118Z,6.40
2023-03-26T23:55:02.145Z,6.40
2023-03-26T23:57:30.655Z,6.40
2023-03-26T23:59:58.487Z,6.38
